Time;durP1;ratioP1;P1;durP2;ratioP2;P2;SDS_P1;SDS_P2;PMS_P1;PMS_P2;Temp;Humidity;BMP_temperature;BMP_pressure;BME280_temperature;BME280_humidity;BME280_pressure;Samples;Min_cycle;Max_cycle;Signal;HPM_P1;HPM_P2
2023/06/18 00:02:25;;;;;;;16.87;14.73;;;;;;;;;;5147206;27;20821;-56
2023/06/18 00:04:54;;;;;;;21.10;14.67;;;16.90;99.90;;;;;;5150743;27;20491;-55
2023/06/18 00:07:23;;;;;;;18.33;14.67;;;;;;;;;;5140637;27;20448;-53
2023/06/18 00:09:50;;;;;;;20.03;16.17;;;17.30;99.90;;;;;;5143507;27;20472;-56
2023/06/18 00:12:16;;;;;;;17.67;14.40;;;16.80;99.90;;;;;;5141042;27;20514;-57
2023/06/18 00:14:43;;;;;;;22.40;14.90;;;16.80;99.90;;;;;;5139497;27;20428;-56
2023/06/18 00:17:10;;;;;;;19.13;15.37;;;;;;;;;;5136789;27;20440;-55
2023/06/18 00:19:37;;;;;;;18.87;14.37;;;16.70;99.90;;;;;;5137439;27;20539;-51
2023/06/18 00:22:05;;;;;;;20.07;16.20;;;15.50;99.90;;;;;;5158286;27;20522;-51
2023/06/18 00:24:33;;;;;;;18.23;14.30;;;17.10;99.90;;;;;;5167339;27;20545;-52
2023/06/18 00:27:00;;;;;;;17.23;14.77;;;16.60;99.90;;;;;;5167374;27;20434;-55
2023/06/18 00:29:29;;;;;;;17.77;13.57;;;;;;;;;;5168456;27;20461;-49
2023/06/18 00:31:56;;;;;;;21.73;16.10;;;;;;;;;;5166420;27;20453;-52
2023/06/18 00:34:32;;;;;;;18.37;13.53;;;;;;;;;;5166882;27;20439;-54
2023/06/18 00:37:00;;;;;;;17.10;13.63;;;16.30;99.90;;;;;;5167262;27;20439;-55
2023/06/18 00:39:26;;;;;;;19.77;14.63;;;16.70;99.90;;;;;;5162675;27;20443;-54
2023/06/18 00:41:55;;;;;;;18.10;14.83;;;;;;;;;;5158039;27;20553;-56
2023/06/18 00:44:22;;;;;;;19.90;14.63;;;16.60;99.90;;;;;;5157787;27;20522;-57
2023/06/18 00:46:51;;;;;;;18.40;12.47;;;16.70;99.90;;;;;;5156944;27;20506;-57
2023/06/18 00:49:21;;;;;;;17.90;14.00;;;16.60;99.90;;;;;;5157959;27;20561;-54
2023/06/18 00:51:53;;;;;;;18.00;14.50;;;16.60;99.90;;;;;;5151145;27;20495;-55
2023/06/18 00:54:20;;;;;;;16.90;13.37;;;16.30;99.90;;;;;;5155980;27;20420;-59
2023/06/18 00:56:50;;;;;;;15.70;12.47;;;16.40;99.90;;;;;;5153264;27;20495;-59
2023/06/18 00:59:22;;;;;;;20.60;14.93;;;16.40;99.90;;;;;;5156956;27;20408;-56
2023/06/18 01:01:51;;;;;;;16.73;12.73;;;16.70;99.90;;;;;;5156321;27;20427;-57
2023/06/18 01:04:18;;;;;;;19.30;13.07;;;16.40;99.90;;;;;;5156932;27;20498;-59
2023/06/18 01:06:52;;;;;;;16.83;12.87;;;16.30;99.90;;;;;;5154821;27;20439;-56
2023/06/18 01:09:21;;;;;;;19.20;14.17;;;16.50;99.90;;;;;;5157247;27;20436;-55
2023/06/18 01:11:51;;;;;;;16.47;12.87;;;16.50;99.90;;;;;;5156312;27;20455;-55
2023/06/18 01:14:21;;;;;;;16.20;12.90;;;16.50;99.90;;;;;;5155878;27;20488;-56
2023/06/18 01:16:51;;;;;;;16.30;13.53;;;16.60;99.90;;;;;;5155939;27;20772;-55
2023/06/18 01:19:35;;;;;;;16.30;13.03;;;16.50;99.90;;;;;;5156126;27;20435;-58
2023/06/18 01:22:11;;;;;;;15.70;13.27;;;16.40;99.90;;;;;;5156510;27;20424;-58
2023/06/18 01:24:45;;;;;;;14.00;12.27;;;16.40;99.90;;;;;;5155224;28;20467;-59
2023/06/18 01:27:12;;;;;;;17.07;14.60;;;16.80;99.90;;;;;;5142537;27;20428;-59
2023/06/18 01:29:41;;;;;;;19.33;12.70;;;15.90;99.90;;;;;;5151616;28;20465;-56
2023/06/18 01:32:08;;;;;;;17.37;13.73;;;16.40;99.90;;;;;;5155661;28;20498;-57
2023/06/18 01:34:38;;;;;;;13.93;12.20;;;16.20;99.90;;;;;;5153832;27;20449;-62
2023/06/18 01:37:14;;;;;;;16.23;13.27;;;16.30;99.90;;;;;;5153108;28;20416;-59
2023/06/18 01:39:52;;;;;;;14.23;11.33;;;16.30;99.90;;;;;;5136677;28;20536;-58
2023/06/18 01:42:23;;;;;;;17.57;13.37;;;16.30;99.90;;;;;;5135425;28;20526;-58
2023/06/18 01:44:58;;;;;;;16.50;13.27;;;16.20;99.90;;;;;;5134697;28;20542;-59
2023/06/18 01:47:27;;;;;;;16.97;12.90;;;16.70;99.90;;;;;;5134524;27;20463;-59
2023/06/18 01:49:55;;;;;;;13.10;11.43;;;16.10;99.90;;;;;;5135619;28;20459;-59
2023/06/18 01:52:24;;;;;;;14.50;12.03;;;16.30;99.90;;;;;;5148211;28;20439;-59
2023/06/18 01:54:52;;;;;;;18.90;14.67;;;16.50;99.90;;;;;;5150063;28;20464;-58
2023/06/18 01:57:20;;;;;;;16.47;13.80;;;16.20;99.90;;;;;;5152479;27;20428;-55
2023/06/18 01:59:48;;;;;;;17.97;11.93;;;16.40;99.90;;;;;;5151974;28;20452;-55
2023/06/18 02:02:16;;;;;;;15.07;11.80;;;16.10;99.90;;;;;;5152528;28;20577;-56
2023/06/18 02:04:43;;;;;;;20.50;14.20;;;16.00;99.90;;;;;;5136852;28;20475;-63
2023/06/18 02:07:10;;;;;;;17.30;12.33;;;16.10;99.90;;;;;;5138793;28;20435;-61
2023/06/18 02:09:37;;;;;;;16.00;12.60;;;16.30;99.90;;;;;;5139552;28;20492;-60
2023/06/18 02:12:05;;;;;;;16.50;12.93;;;16.10;99.90;;;;;;5140372;28;20439;-61
2023/06/18 02:14:32;;;;;;;15.80;13.20;;;;;;;;;;5146531;27;20470;-58
2023/06/18 02:16:59;;;;;;;17.97;13.20;;;16.20;99.90;;;;;;5152303;27;20455;-57
2023/06/18 02:19:27;;;;;;;15.63;12.60;;;16.00;99.90;;;;;;5156226;28;20469;-58
2023/06/18 02:21:54;;;;;;;15.27;13.27;;;16.20;99.90;;;;;;5156726;27;20439;-64
2023/06/18 02:24:21;;;;;;;17.90;14.60;;;15.70;99.90;;;;;;5122147;27;1082157;-56
2023/06/18 02:26:49;;;;;;;22.00;13.17;;;;;;;;;;5162031;27;20185;-64
2023/06/18 02:29:15;;;;;;;19.50;13.03;;;15.90;99.90;;;;;;5162130;27;20439;-56
2023/06/18 02:31:42;;;;;;;17.87;14.10;;;15.60;99.90;;;;;;5161818;27;20443;-60
2023/06/18 02:34:10;;;;;;;20.67;13.80;;;;;;;;;;5160862;27;20462;-58
2023/06/18 02:36:38;;;;;;;18.50;14.50;;;16.10;99.90;;;;;;5160377;27;20444;-60
2023/06/18 02:39:05;;;;;;;15.57;12.20;;;16.00;99.90;;;;;;5160613;27;20441;-54
2023/06/18 02:41:32;;;;;;;19.43;13.77;;;16.10;99.90;;;;;;5160658;27;20462;-58
2023/06/18 02:43:59;;;;;;;16.80;14.67;;;16.60;99.90;;;;;;5159641;27;20467;-58
2023/06/18 02:46:26;;;;;;;28.53;14.57;;;15.80;99.90;;;;;;5160149;27;20463;-57
2023/06/18 02:48:53;;;;;;;18.73;12.97;;;;;;;;;;5160157;27;20447;-55
2023/06/18 02:51:20;;;;;;;19.10;12.57;;;16.00;99.90;;;;;;5159845;27;20451;-55
2023/06/18 02:53:48;;;;;;;16.60;12.33;;;16.00;99.90;;;;;;5154360;27;20476;-59
2023/06/18 02:56:18;;;;;;;16.40;13.83;;;16.00;99.90;;;;;;5157014;27;20451;-58
2023/06/18 02:58:46;;;;;;;18.87;16.03;;;15.50;99.90;;;;;;5159696;27;20467;-57
2023/06/18 03:01:17;;;;;;;20.90;14.67;;;15.90;99.90;;;;;;5159175;27;20420;-58
2023/06/18 03:03:44;;;;;;;16.20;13.20;;;;;;;;;;5159144;27;20489;-58
2023/06/18 03:06:13;;;;;;;18.20;13.37;;;16.60;99.90;;;;;;5159078;27;20467;-59
2023/06/18 03:08:40;;;;;;;18.70;14.00;;;15.90;99.90;;;;;;5160352;27;20440;-58
2023/06/18 03:11:08;;;;;;;20.83;14.40;;;15.80;99.90;;;;;;5160826;27;20424;-59
2023/06/18 03:13:35;;;;;;;22.17;14.83;;;16.10;99.90;;;;;;5159817;27;20493;-58
2023/06/18 03:16:03;;;;;;;18.33;14.07;;;;;;;;;;5159586;27;20448;-57
2023/06/18 03:18:30;;;;;;;19.60;15.23;;;15.90;99.90;;;;;;5159671;27;20442;-56
2023/06/18 03:20:57;;;;;;;16.27;13.60;;;16.40;99.90;;;;;;5158715;27;20467;-56
2023/06/18 03:23:24;;;;;;;18.70;14.23;;;15.90;99.90;;;;;;5158283;27;20474;-57
2023/06/18 03:25:51;;;;;;;19.93;15.00;;;16.10;99.90;;;;;;5158590;27;20482;-54
2023/06/18 03:28:20;;;;;;;19.83;13.73;;;15.80;99.90;;;;;;5158887;27;20424;-54
2023/06/18 03:30:47;;;;;;;16.43;13.93;;;15.70;99.90;;;;;;5159701;27;20427;-58
2023/06/18 03:33:17;;;;;;;23.30;16.00;;;;;;;;;;5158599;27;20464;-57
2023/06/18 03:35:46;;;;;;;20.53;14.60;;;15.90;99.90;;;;;;5159419;27;20484;-55
2023/06/18 03:38:13;;;;;;;19.03;14.23;;;15.90;99.90;;;;;;5158255;27;20440;-55
2023/06/18 03:40:40;;;;;;;24.67;15.10;;;16.70;99.90;;;;;;5158311;27;20896;-54
2023/06/18 03:43:08;;;;;;;17.07;13.23;;;16.00;99.90;;;;;;5157884;27;20436;-53
2023/06/18 03:45:36;;;;;;;19.33;14.43;;;16.60;99.90;;;;;;5148076;27;20467;-56
2023/06/18 03:48:04;;;;;;;17.70;14.70;;;16.30;99.90;;;;;;5158466;27;20432;-54
2023/06/18 03:50:31;;;;;;;19.43;13.90;;;16.20;99.90;;;;;;5157818;27;20440;-56
2023/06/18 03:52:58;;;;;;;17.80;14.47;;;16.10;99.90;;;;;;5158175;27;20416;-57
2023/06/18 03:55:24;;;;;;;26.10;15.53;;;16.30;99.90;;;;;;5158738;27;20448;-57
2023/06/18 03:57:51;;;;;;;19.77;15.13;;;15.90;99.90;;;;;;5157993;27;20530;-57
2023/06/18 04:00:19;;;;;;;17.83;13.37;;;;;;;;;;5158098;27;20443;-59
2023/06/18 04:02:47;;;;;;;21.83;14.37;;;16.30;99.90;;;;;;5158726;27;20489;-54
2023/06/18 04:05:14;;;;;;;18.90;14.70;;;16.20;99.90;;;;;;5157555;27;20469;-58
2023/06/18 04:07:41;;;;;;;23.17;15.27;;;16.40;99.90;;;;;;5158201;27;20472;-53
2023/06/18 04:10:08;;;;;;;21.00;15.47;;;16.20;99.90;;;;;;5157838;27;20456;-58
2023/06/18 04:12:36;;;;;;;16.63;14.37;;;;;;;;;;5156747;27;20432;-54
2023/06/18 04:15:03;;;;;;;22.27;16.77;;;16.50;99.90;;;;;;5157940;27;20451;-54
2023/06/18 04:17:39;;;;;;;22.47;14.70;;;16.30;99.90;;;;;;5157748;27;20440;-58
2023/06/18 04:20:09;;;;;;;18.20;15.40;;;16.30;99.90;;;;;;5157350;27;20503;-59
2023/06/18 04:22:36;;;;;;;19.10;15.63;;;16.30;99.90;;;;;;5157657;27;20475;-59
2023/06/18 04:25:03;;;;;;;27.03;15.30;;;16.60;99.90;;;;;;5158100;27;20495;-56
2023/06/18 04:27:30;;;;;;;16.43;14.70;;;;;;;;;;5158465;27;20443;-58
2023/06/18 04:29:58;;;;;;;22.97;15.33;;;;;;;;;;5158839;27;20447;-57
2023/06/18 04:32:25;;;;;;;22.53;16.73;;;16.50;99.90;;;;;;5157965;27;20445;-56
2023/06/18 04:34:52;;;;;;;21.03;16.40;;;16.50;99.90;;;;;;5157477;27;20458;-60
2023/06/18 04:37:20;;;;;;;22.00;17.73;;;16.70;99.90;;;;;;5157809;27;20480;-56
2023/06/18 04:39:47;;;;;;;23.00;16.10;;;16.90;99.90;;;;;;5158088;27;20443;-53
2023/06/18 04:42:14;;;;;;;22.47;17.70;;;16.90;99.90;;;;;;5157785;27;20497;-61
2023/06/18 04:44:41;;;;;;;20.50;16.83;;;;;;;;;;5156349;27;20470;-59
2023/06/18 04:47:08;;;;;;;23.07;15.70;;;16.80;99.90;;;;;;5156792;27;20444;-56
2023/06/18 04:49:35;;;;;;;24.17;15.63;;;17.20;99.90;;;;;;5156463;27;20455;-59
2023/06/18 04:52:03;;;;;;;15.33;13.63;;;;;;;;;;5155526;27;20464;-57
2023/06/18 04:54:31;;;;;;;18.70;16.70;;;17.00;99.90;;;;;;5156464;27;20441;-59
2023/06/18 04:56:58;;;;;;;20.03;16.17;;;17.00;99.90;;;;;;5157317;27;20935;-58
2023/06/18 04:59:25;;;;;;;25.20;15.93;;;17.10;99.90;;;;;;5156964;27;20435;-61
2023/06/18 05:01:52;;;;;;;21.77;16.30;;;16.90;99.90;;;;;;5157501;27;20439;-56
2023/06/18 05:04:19;;;;;;;18.90;15.53;;;17.60;99.90;;;;;;5157807;27;20470;-57
2023/06/18 05:06:46;;;;;;;19.37;16.37;;;17.10;99.90;;;;;;5158223;27;20457;-57
2023/06/18 05:09:13;;;;;;;18.73;13.53;;;;;;;;;;5158099;27;20435;-57
2023/06/18 05:11:41;;;;;;;21.70;16.40;;;17.30;99.90;;;;;;5156140;27;20468;-57
2023/06/18 05:14:08;;;;;;;20.17;16.03;;;17.40;99.90;;;;;;5157531;27;20432;-56
2023/06/18 05:16:35;;;;;;;22.97;16.67;;;17.50;99.90;;;;;;5155937;27;20451;-54
2023/06/18 05:19:03;;;;;;;19.87;13.60;;;17.50;99.90;;;;;;5156872;27;20443;-54
2023/06/18 05:21:29;;;;;;;21.27;15.10;;;17.50;99.90;;;;;;5156916;27;20443;-59
2023/06/18 05:23:57;;;;;;;23.37;15.63;;;17.60;99.90;;;;;;5156897;27;20482;-56
2023/06/18 05:26:24;;;;;;;16.93;12.83;;;;;;;;;;5157096;27;20483;-58
2023/06/18 05:28:52;;;;;;;17.53;13.50;;;17.90;99.90;;;;;;5156462;27;20443;-57
2023/06/18 05:31:19;;;;;;;14.50;11.67;;;17.90;99.90;;;;;;5156312;27;20451;-58
2023/06/18 05:33:46;;;;;;;17.80;12.97;;;18.00;99.90;;;;;;5155710;27;20474;-57
2023/06/18 05:36:16;;;;;;;14.70;10.97;;;18.00;99.90;;;;;;5153062;27;20460;-58
2023/06/18 05:38:43;;;;;;;16.30;11.47;;;19.00;99.90;;;;;;5156126;27;20428;-55
2023/06/18 05:41:10;;;;;;;15.17;11.53;;;18.10;99.90;;;;;;5156581;27;20637;-56
2023/06/18 05:43:39;;;;;;;14.20;11.13;;;18.10;99.90;;;;;;5156093;27;20428;-54
2023/06/18 05:46:07;;;;;;;12.10;9.50;;;;;;;;;;5154243;27;20528;-56
2023/06/18 05:48:34;;;;;;;11.30;9.23;;;18.30;99.90;;;;;;5155480;27;20467;-56
2023/06/18 05:51:01;;;;;;;14.20;10.10;;;18.70;99.90;;;;;;5154010;27;20873;-58
2023/06/18 05:53:28;;;;;;;12.23;9.07;;;18.60;99.90;;;;;;5152492;27;20459;-53
2023/06/18 05:55:55;;;;;;;10.90;8.07;;;19.00;99.90;;;;;;5153784;27;20463;-58
2023/06/18 05:58:22;;;;;;;13.47;10.40;;;19.50;99.90;;;;;;5156330;27;20487;-54
2023/06/18 06:00:49;;;;;;;12.40;9.43;;;19.00;99.90;;;;;;5155392;27;20463;-54
2023/06/18 06:03:17;;;;;;;12.37;9.87;;;19.10;99.90;;;;;;5156068;27;20444;-57
2023/06/18 06:05:44;;;;;;;13.10;9.00;;;18.90;99.90;;;;;;5155907;27;20506;-57
2023/06/18 06:08:11;;;;;;;14.23;8.30;;;19.00;99.90;;;;;;5156387;27;20419;-62
2023/06/18 06:10:38;;;;;;;10.07;8.20;;;19.30;99.90;;;;;;5156755;27;20469;-56
2023/06/18 06:13:05;;;;;;;7.30;6.60;;;19.10;99.90;;;;;;5154246;28;20467;-57
2023/06/18 06:15:31;;;;;;;7.00;6.13;;;19.50;99.90;;;;;;5156224;27;20424;-56
2023/06/18 06:17:58;;;;;;;8.67;7.40;;;19.40;99.90;;;;;;5155769;28;20467;-58
2023/06/18 06:20:27;;;;;;;7.53;6.83;;;19.50;99.90;;;;;;5156628;28;20460;-60
2023/06/18 06:22:54;;;;;;;7.80;6.73;;;;;;;;;;5156092;28;20440;-58
2023/06/18 06:25:21;;;;;;;10.90;6.87;;;19.50;99.90;;;;;;5144259;27;21008;-59
2023/06/18 06:27:48;;;;;;;11.17;7.00;;;20.00;99.90;;;;;;5145650;28;20487;-61
2023/06/18 06:30:15;;;;;;;9.80;7.73;;;19.70;99.90;;;;;;5143036;27;20526;-59
2023/06/18 06:32:42;;;;;;;12.30;7.30;;;19.80;99.90;;;;;;5156465;27;20463;-58
2023/06/18 06:35:09;;;;;;;7.60;6.27;;;20.20;99.90;;;;;;5154530;28;20467;-55
2023/06/18 06:37:38;;;;;;;8.60;6.73;;;20.30;99.90;;;;;;5155896;27;20473;-58
2023/06/18 06:40:06;;;;;;;7.43;6.23;;;20.20;99.90;;;;;;5155378;28;20459;-61
2023/06/18 06:42:33;;;;;;;8.50;7.30;;;;;;;;;;5140320;28;20456;-57
2023/06/18 06:45:00;;;;;;;7.33;5.97;;;20.30;99.90;;;;;;5154026;27;20564;-57
2023/06/18 06:47:27;;;;;;;6.67;6.07;;;20.40;99.90;;;;;;5156262;27;20436;-56
2023/06/18 06:49:54;;;;;;;8.70;7.80;;;;;;;;;;5155639;28;20439;-59
2023/06/18 06:52:21;;;;;;;10.30;7.03;;;20.50;99.90;;;;;;5139713;27;20475;-58
2023/06/18 06:54:51;;;;;;;8.47;6.90;;;20.60;99.90;;;;;;5135321;28;20535;-57
2023/06/18 06:57:18;;;;;;;8.87;7.00;;;21.40;99.90;;;;;;5139702;27;20490;-57
2023/06/18 06:59:44;;;;;;;12.23;6.63;;;20.60;99.90;;;;;;5155908;28;20443;-58
2023/06/18 07:02:11;;;;;;;9.70;7.10;;;21.20;99.90;;;;;;5145348;28;20506;-59
2023/06/18 07:04:39;;;;;;;8.70;7.10;;;21.40;99.90;;;;;;5134514;28;20476;-58
2023/06/18 07:07:06;;;;;;;7.73;6.87;;;21.20;99.90;;;;;;5137121;27;20462;-58
2023/06/18 07:09:36;;;;;;;8.37;7.17;;;;;;;;;;5157649;27;20427;-58
2023/06/18 07:12:05;;;;;;;7.23;6.27;;;21.40;99.90;;;;;;5155310;27;20491;-59
2023/06/18 07:14:32;;;;;;;8.17;6.43;;;22.40;99.90;;;;;;5157850;27;20428;-54
2023/06/18 07:16:59;;;;;;;7.30;6.37;;;;;;;;;;5154420;27;20451;-59
2023/06/18 07:19:26;;;;;;;7.13;6.33;;;23.90;99.90;;;;;;5160469;27;20462;-60
2023/06/18 07:21:53;;;;;;;6.73;6.03;;;;;;;;;;5158194;27;20447;-57
2023/06/18 07:24:20;;;;;;;7.47;6.20;;;27.00;99.90;;;;;;5156576;27;20463;-59
2023/06/18 07:26:47;;;;;;;6.03;5.43;;;28.60;99.90;;;;;;5157885;27;20479;-53
2023/06/18 07:29:16;;;;;;;6.43;5.73;;;30.10;99.90;;;;;;5156653;27;20469;-59
2023/06/18 07:31:43;;;;;;;6.50;5.90;;;31.30;99.90;;;;;;5154522;27;20453;-61
2023/06/18 07:34:09;;;;;;;6.30;5.07;;;32.90;99.90;;;;;;5153853;27;20550;-60
2023/06/18 07:36:36;;;;;;;7.40;6.67;;;34.20;99.90;;;;;;5148656;27;20450;-58
2023/06/18 07:39:03;;;;;;;7.30;6.60;;;34.50;97.00;;;;;;5158264;27;20471;-62
2023/06/18 07:41:30;;;;;;;6.63;6.13;;;35.30;95.90;;;;;;5157560;27;20456;-57
2023/06/18 07:44:00;;;;;;;7.27;6.67;;;36.10;89.30;;;;;;5144474;27;20487;-55
2023/06/18 07:46:28;;;;;;;5.97;5.47;;;36.40;91.70;;;;;;5152657;27;20501;-57
2023/06/18 07:48:55;;;;;;;6.83;6.23;;;36.20;90.00;;;;;;5158161;27;20468;-57
2023/06/18 07:51:22;;;;;;;6.33;5.67;;;36.70;87.50;;;;;;5157476;27;20448;-57
2023/06/18 07:53:50;;;;;;;8.00;6.80;;;36.50;51.40;;;;;;5158077;27;20463;-57
2023/06/18 07:56:17;;;;;;;7.10;6.37;;;36.20;79.40;;;;;;5158274;27;20450;-60
2023/06/18 07:58:45;;;;;;;13.57;12.27;;;;;;;;;;5161000;27;20456;-58
2023/06/18 08:01:12;;;;;;;12.30;11.07;;;36.60;80.00;;;;;;5162879;27;20432;-58
2023/06/18 08:03:40;;;;;;;16.40;14.70;;;36.10;79.10;;;;;;5158514;27;20456;-58
2023/06/18 08:06:07;;;;;;;6.10;5.60;;;36.30;87.70;;;;;;5161092;27;20462;-60
2023/06/18 08:08:34;;;;;;;6.43;5.83;;;35.90;70.70;;;;;;5177891;27;20523;-58
2023/06/18 08:11:01;;;;;;;5.80;5.20;;;35.30;86.40;;;;;;5176779;27;20423;-57
2023/06/18 08:13:30;;;;;;;5.90;5.30;;;35.20;50.50;;;;;;5174299;27;20439;-57
2023/06/18 08:15:57;;;;;;;5.27;4.87;;;35.40;79.90;;;;;;5159147;27;20478;-57
2023/06/18 08:18:24;;;;;;;5.70;5.20;;;;;;;;;;5162000;27;20467;-55
2023/06/18 08:20:54;;;;;;;6.10;4.90;;;35.10;85.60;;;;;;5152167;27;20490;-59
2023/06/18 08:23:21;;;;;;;5.40;4.90;;;35.00;77.60;;;;;;5166486;27;20463;-56
2023/06/18 08:25:48;;;;;;;5.90;5.37;;;35.50;77.10;;;;;;5162609;27;20524;-54
2023/06/18 08:28:14;;;;;;;5.00;4.60;;;35.30;86.50;;;;;;5150415;27;20839;-56
2023/06/18 08:30:42;;;;;;;5.17;4.77;;;;;;;;;;5150544;27;20490;-58
2023/06/18 08:33:09;;;;;;;5.57;5.07;;;34.70;79.50;;;;;;5156710;27;20424;-54
2023/06/18 08:35:38;;;;;;;5.33;4.90;;;35.00;50.80;;;;;;5155318;27;20435;-56
2023/06/18 08:38:08;;;;;;;6.20;5.70;;;35.00;50.70;;;;;;5157408;27;20454;-57
2023/06/18 08:40:37;;;;;;;5.40;4.90;;;34.80;85.20;;;;;;5156232;27;20473;-58
2023/06/18 08:43:09;;;;;;;5.00;4.60;;;34.00;80.70;;;;;;5149118;27;20448;-55
2023/06/18 08:45:36;;;;;;;5.67;5.17;;;;;;;;;;5139772;27;20471;-56
2023/06/18 08:48:08;;;;;;;5.70;5.30;;;31.70;91.30;;;;;;5154560;27;20460;-53
2023/06/18 08:50:36;;;;;;;6.83;5.53;;;31.10;89.60;;;;;;5149695;27;20431;-58
2023/06/18 08:53:11;;;;;;;9.40;5.70;;;31.10;89.60;;;;;;5151121;27;20490;-55
2023/06/18 08:55:40;;;;;;;5.47;4.97;;;;;;;;;;5155993;27;20480;-56
2023/06/18 08:58:14;;;;;;;6.43;5.10;;;32.00;86.80;;;;;;5158579;27;20487;-58
2023/06/18 09:00:41;;;;;;;5.27;4.77;;;32.50;92.10;;;;;;5156296;27;20450;-56
2023/06/18 09:03:10;;;;;;;6.43;5.87;;;;;;;;;;5158283;27;20499;-54
2023/06/18 09:05:38;;;;;;;5.80;5.30;;;32.70;92.60;;;;;;5150621;27;20497;-57
2023/06/18 09:08:06;;;;;;;8.40;5.80;;;;;;;;;;5148704;27;20439;-57
2023/06/18 09:10:41;;;;;;;5.90;5.40;;;30.80;90.10;;;;;;5157376;27;20428;-57
2023/06/18 09:13:08;;;;;;;8.23;5.80;;;29.90;95.60;;;;;;5143369;27;20455;-56
2023/06/18 09:15:35;;;;;;;6.83;6.20;;;30.00;96.50;;;;;;5154882;27;20470;-58
2023/06/18 09:18:02;;;;;;;7.97;5.80;;;;;;;;;;5151656;27;20427;-58
2023/06/18 09:20:29;;;;;;;6.43;4.80;;;31.60;95.00;;;;;;5154101;27;20478;-58
2023/06/18 09:22:56;;;;;;;5.10;4.70;;;32.20;92.70;;;;;;5139485;27;20483;-58
2023/06/18 09:25:24;;;;;;;4.20;3.90;;;33.30;86.40;;;;;;5152566;27;20529;-58
2023/06/18 09:27:56;;;;;;;5.03;4.53;;;33.10;86.80;;;;;;5156429;27;20440;-55
2023/06/18 09:30:23;;;;;;;5.10;4.70;;;33.50;91.90;;;;;;5152055;27;20553;-58
2023/06/18 09:32:51;;;;;;;6.23;4.57;;;33.70;65.30;;;;;;5147386;27;20832;-57
2023/06/18 09:35:18;;;;;;;5.30;4.80;;;;;;;;;;5154178;27;20493;-58
2023/06/18 09:37:45;;;;;;;7.43;4.57;;;;;;;;;;5150457;27;20463;-55
2023/06/18 09:40:16;;;;;;;5.23;4.73;;;34.30;51.60;;;;;;5154839;27;20423;-55
2023/06/18 09:42:44;;;;;;;5.53;5.03;;;34.20;82.10;;;;;;5155027;27;20420;-57
2023/06/18 09:45:14;;;;;;;6.07;5.47;;;33.70;54.00;;;;;;5152927;27;20465;-59
2023/06/18 09:47:44;;;;;;;7.30;6.00;;;33.10;83.80;;;;;;5150448;27;20516;-60
2023/06/18 09:50:11;;;;;;;5.63;5.13;;;32.00;86.90;;;;;;5139437;27;20439;-56
2023/06/18 09:52:48;;;;;;;6.67;4.80;;;30.90;95.00;;;;;;5152238;27;20477;-56
2023/06/18 09:55:29;;;;;;;5.23;4.80;;;29.80;95.80;;;;;;5152147;27;20448;-59
2023/06/18 09:57:57;;;;;;;7.70;5.07;;;29.70;93.30;;;;;;5154967;27;20459;-60
2023/06/18 10:00:26;;;;;;;5.93;5.40;;;29.60;94.90;;;;;;5155483;27;20467;-53
2023/06/18 10:02:54;;;;;;;6.60;5.77;;;30.20;66.20;;;;;;5155858;27;20443;-60
2023/06/18 10:05:21;;;;;;;4.57;4.17;;;30.20;94.10;;;;;;5154061;27;20408;-56
2023/06/18 10:07:49;;;;;;;5.90;5.30;;;30.60;97.80;;;;;;5155451;27;20535;-52
2023/06/18 10:10:17;;;;;;;9.97;6.40;;;30.20;95.80;;;;;;5155562;28;20439;-59
2023/06/18 10:12:45;;;;;;;5.60;5.10;;;29.80;68.00;;;;;;5155197;28;20481;-59
2023/06/18 10:15:16;;;;;;;7.90;7.10;;;29.30;69.90;;;;;;5141587;28;20563;-55
2023/06/18 10:17:51;;;;;;;9.23;6.00;;;29.00;71.10;;;;;;5155190;28;20733;-58
2023/06/18 10:20:19;;;;;;;5.50;5.10;;;28.20;96.60;;;;;;5155360;28;20465;-54
2023/06/18 10:22:49;;;;;;;8.20;4.77;;;28.60;70.10;;;;;;5151893;28;20483;-59
2023/06/18 10:25:16;;;;;;;7.60;5.43;;;29.20;96.40;;;;;;5155102;28;20439;-58
2023/06/18 10:27:44;;;;;;;5.73;4.60;;;30.00;72.50;;;;;;5154477;28;20495;-58
2023/06/18 10:30:13;;;;;;;5.77;5.23;;;30.50;93.80;;;;;;5137377;28;20448;-59
2023/06/18 10:32:42;;;;;;;9.00;5.10;;;30.60;62.10;;;;;;5152975;27;20463;-60
2023/06/18 10:35:14;;;;;;;6.30;4.87;;;30.60;57.00;;;;;;5155556;28;20439;-55
2023/06/18 10:37:45;;;;;;;5.40;4.90;;;30.40;77.00;;;;;;5155246;28;20452;-58
2023/06/18 10:40:13;;;;;;;6.03;5.43;;;30.50;93.00;;;;;;5155799;28;20431;-57
2023/06/18 10:42:48;;;;;;;8.13;5.37;;;30.20;97.50;;;;;;5156495;27;20455;-57
2023/06/18 10:45:17;;;;;;;6.17;5.30;;;29.80;94.50;;;;;;5156356;27;20471;-57
2023/06/18 10:47:45;;;;;;;6.10;5.50;;;30.10;67.30;;;;;;5159617;27;20500;-58
2023/06/18 10:50:17;;;;;;;5.77;5.17;;;29.90;98.70;;;;;;5160047;27;20427;-58
2023/06/18 10:52:46;;;;;;;6.67;5.67;;;29.50;93.30;;;;;;5154714;27;20507;-59
2023/06/18 10:55:14;;;;;;;5.37;4.70;;;29.00;67.40;;;;;;5152453;27;20467;-58
2023/06/18 10:57:43;;;;;;;5.90;5.40;;;28.40;68.00;;;;;;5159220;27;20438;-58
2023/06/18 11:00:18;;;;;;;5.97;5.47;;;28.40;82.70;;;;;;5158768;27;20440;-57
2023/06/18 11:02:46;;;;;;;6.47;5.43;;;28.60;70.50;;;;;;5157159;27;20887;-58
2023/06/18 11:05:32;;;;;;;6.37;5.77;;;28.50;98.90;;;;;;5142109;27;20486;-58
2023/06/18 11:08:04;;;;;;;6.97;5.50;;;28.20;94.80;;;;;;5141831;27;20517;-58
2023/06/18 11:10:35;;;;;;;6.60;5.10;;;28.00;98.70;;;;;;5153613;27;20454;-60
2023/06/18 11:13:04;;;;;;;5.17;4.70;;;27.80;98.70;;;;;;5149474;27;20464;-58
2023/06/18 11:15:31;;;;;;;5.73;5.23;;;27.80;99.90;;;;;;5154161;27;20511;-57
2023/06/18 11:18:01;;;;;;;5.70;5.10;;;;;;;;;;5158085;27;20440;-55
2023/06/18 11:20:32;;;;;;;5.27;4.83;;;27.80;70.80;;;;;;5154539;27;20459;-58
2023/06/18 11:23:00;;;;;;;6.47;5.40;;;27.70;70.20;;;;;;5156032;27;20447;-56
2023/06/18 11:25:29;;;;;;;7.30;5.27;;;27.60;99.90;;;;;;5153661;27;20507;-59
2023/06/18 11:28:01;;;;;;;7.07;5.93;;;27.20;72.80;;;;;;5157374;27;20470;-55
2023/06/18 11:30:29;;;;;;;6.03;5.07;;;;;;;;;;5159418;27;20405;-58
2023/06/18 11:32:56;;;;;;;5.30;4.87;;;;;;;;;;5158733;27;20444;-59
2023/06/18 11:35:23;;;;;;;5.23;4.73;;;26.80;99.90;;;;;;5157834;27;20492;-53
2023/06/18 11:37:55;;;;;;;6.50;5.37;;;26.50;83.30;;;;;;5158420;27;20436;-58
2023/06/18 11:40:24;;;;;;;5.00;4.27;;;26.90;99.90;;;;;;5159154;27;20420;-58
2023/06/18 11:42:52;;;;;;;5.57;4.57;;;26.70;79.90;;;;;;5157408;27;20424;-59
2023/06/18 11:45:20;;;;;;;9.53;5.37;;;26.70;99.90;;;;;;5155617;27;20427;-57
2023/06/18 11:47:49;;;;;;;6.23;5.60;;;26.60;99.10;;;;;;5158324;27;20544;-58
2023/06/18 11:50:16;;;;;;;6.23;5.43;;;;;;;;;;5158751;27;20436;-57
2023/06/18 11:52:43;;;;;;;5.90;5.33;;;26.70;99.90;;;;;;5156016;27;20464;-58
2023/06/18 11:55:12;;;;;;;6.33;5.73;;;26.50;98.80;;;;;;5154138;27;20454;-58
2023/06/18 11:57:39;;;;;;;5.20;4.70;;;;;;;;;;5157889;27;20484;-56
2023/06/18 12:00:08;;;;;;;6.00;5.40;;;27.00;98.30;;;;;;5158429;27;20446;-56
2023/06/18 12:02:35;;;;;;;5.27;4.50;;;;;;;;;;5159052;27;20427;-59
2023/06/18 12:05:03;;;;;;;5.60;4.70;;;27.40;99.90;;;;;;5157390;27;20443;-58
2023/06/18 12:07:31;;;;;;;5.63;5.23;;;;;;;;;;5153545;27;20475;-59
2023/06/18 12:10:01;;;;;;;5.63;5.07;;;27.60;69.40;;;;;;5157524;27;20467;-57
2023/06/18 12:12:35;;;;;;;5.90;4.93;;;27.90;82.20;;;;;;5140379;27;20436;-59
2023/06/18 12:15:12;;;;;;;4.83;4.43;;;27.90;96.00;;;;;;5157425;27;20474;-58
2023/06/18 12:17:47;;;;;;;4.40;4.00;;;28.50;96.10;;;;;;5158538;27;20439;-59
2023/06/18 12:20:14;;;;;;;5.53;4.30;;;28.40;95.70;;;;;;5159691;27;20416;-53
2023/06/18 12:22:45;;;;;;;4.40;4.00;;;28.50;94.20;;;;;;5158284;27;20536;-58
2023/06/18 12:25:13;;;;;;;5.37;4.87;;;28.20;94.60;;;;;;5154860;27;20416;-58
2023/06/18 12:27:42;;;;;;;4.60;4.20;;;28.60;88.30;;;;;;5157698;27;20508;-57
2023/06/18 12:30:12;;;;;;;4.50;4.10;;;28.50;98.50;;;;;;5156337;27;20416;-60
2023/06/18 12:32:39;;;;;;;5.10;4.60;;;;;;;;;;5158031;27;20474;-61
2023/06/18 12:35:16;;;;;;;6.30;5.13;;;28.40;98.70;;;;;;5154438;27;20439;-56
2023/06/18 12:37:44;;;;;;;4.83;4.43;;;;;;;;;;5154805;27;20455;-56
2023/06/18 12:40:14;;;;;;;4.40;4.00;;;28.10;98.40;;;;;;5157986;27;20424;-59
2023/06/18 12:42:42;;;;;;;5.53;4.97;;;28.10;69.30;;;;;;5156300;27;20833;-58
2023/06/18 12:45:10;;;;;;;5.87;5.37;;;27.30;66.80;;;;;;5151080;27;20440;-59
2023/06/18 12:47:40;;;;;;;6.10;5.53;;;28.40;96.10;;;;;;5155867;27;20865;-58
2023/06/18 12:50:08;;;;;;;6.20;5.03;;;28.40;95.40;;;;;;5158340;27;20464;-56
2023/06/18 12:52:40;;;;;;;4.30;3.93;;;28.50;95.20;;;;;;5155011;27;20452;-56
2023/06/18 12:55:14;;;;;;;5.90;4.90;;;28.30;94.90;;;;;;5156381;27;20496;-54
2023/06/18 12:57:45;;;;;;;6.03;4.07;;;28.30;97.10;;;;;;5141977;27;20460;-56
2023/06/18 13:00:17;;;;;;;4.40;4.00;;;28.50;94.60;;;;;;5156330;27;20436;-57